createdAt,value
2019-05-23T00:00:18.018Z,980.45
2019-05-23T00:01:17.927Z,980.46
2019-05-23T00:02:17.906Z,980.43
2019-05-23T00:03:17.777Z,980.45
2019-05-23T00:04:17.694Z,980.45
2019-05-23T00:05:17.640Z,980.46
2019-05-23T00:06:17.530Z,980.44
2019-05-23T00:07:17.457Z,980.48
2019-05-23T00:08:17.381Z,980.49
2019-05-23T00:09:17.305Z,980.49
2019-05-23T00:10:17.222Z,980.45
2019-05-23T00:11:17.143Z,980.46
2019-05-23T00:12:17.059Z,980.46
2019-05-23T00:13:16.983Z,980.45
2019-05-23T00:14:16.905Z,980.48
2019-05-23T00:15:16.834Z,980.49
2019-05-23T00:16:16.752Z,980.48
2019-05-23T00:17:16.678Z,980.50
2019-05-23T00:18:16.596Z,980.49
2019-05-23T00:19:16.519Z,980.44
2019-05-23T00:20:16.435Z,980.46
2019-05-23T00:21:16.360Z,980.39
2019-05-23T00:22:16.271Z,980.45
2019-05-23T00:23:16.201Z,980.45
2019-05-23T00:24:16.121Z,980.44
2019-05-23T00:25:16.043Z,980.44
2019-05-23T00:26:15.963Z,980.42
2019-05-23T00:27:15.884Z,980.42
2019-05-23T00:28:15.800Z,980.41
2019-05-23T00:29:15.723Z,980.42
2019-05-23T00:30:15.644Z,980.38
2019-05-23T00:31:15.569Z,980.37
2019-05-23T00:32:15.505Z,980.39
2019-05-23T00:33:15.418Z,980.38
2019-05-23T00:34:15.330Z,980.38
2019-05-23T00:35:15.253Z,980.36
2019-05-23T00:36:15.182Z,980.36
2019-05-23T00:37:15.093Z,980.38
2019-05-23T00:38:15.019Z,980.37
2019-05-23T00:39:14.943Z,980.36
2019-05-23T00:40:14.858Z,980.34
2019-05-23T00:41:14.787Z,980.34
2019-05-23T00:42:14.705Z,980.32
2019-05-23T00:43:14.622Z,980.30
2019-05-23T00:44:14.543Z,980.32
2019-05-23T00:45:14.475Z,980.31
2019-05-23T00:46:14.389Z,980.34
2019-05-23T00:47:14.313Z,980.34
2019-05-23T00:48:14.228Z,980.32
2019-05-23T00:49:14.154Z,980.32
2019-05-23T00:50:14.114Z,980.36
2019-05-23T00:51:13.990Z,980.35
2019-05-23T00:52:13.929Z,980.34
2019-05-23T00:53:13.830Z,980.36
2019-05-23T00:54:13.760Z,980.31
2019-05-23T00:55:13.674Z,980.33
2019-05-23T00:56:13.601Z,980.32
2019-05-23T00:57:13.519Z,980.34
2019-05-23T00:58:13.433Z,980.29
2019-05-23T00:59:25.871Z,980.31
2019-05-23T01:00:13.275Z,980.34
2019-05-23T01:01:13.197Z,980.39
2019-05-23T01:02:13.127Z,980.38
2019-05-23T01:03:13.043Z,980.40
2019-05-23T01:04:12.970Z,980.38
2019-05-23T01:05:12.886Z,980.37
2019-05-23T01:06:12.821Z,980.32
2019-05-23T01:07:12.734Z,980.32
2019-05-23T01:08:12.647Z,980.34
2019-05-23T01:09:12.569Z,980.34
2019-05-23T01:10:12.496Z,980.33
2019-05-23T01:11:12.409Z,980.36
2019-05-23T01:12:12.336Z,980.37
2019-05-23T01:13:12.251Z,980.37
2019-05-23T01:14:12.169Z,980.39
2019-05-23T01:15:12.094Z,980.41
2019-05-23T01:16:12.016Z,980.42
2019-05-23T01:17:11.939Z,980.38
2019-05-23T01:18:11.852Z,980.40
2019-05-23T01:19:11.783Z,980.43
2019-05-23T01:20:11.702Z,980.45
2019-05-23T01:21:11.613Z,980.46
2019-05-23T01:22:11.542Z,980.48
2019-05-23T01:23:11.469Z,980.45
2019-05-23T01:24:11.380Z,980.50
2019-05-23T01:25:11.297Z,980.46
2019-05-23T01:26:11.217Z,980.49
2019-05-23T01:27:11.141Z,980.49
2019-05-23T01:28:11.087Z,980.43
2019-05-23T01:29:10.980Z,980.45
2019-05-23T01:30:10.917Z,980.46
2019-05-23T01:31:10.822Z,980.40
2019-05-23T01:32:10.745Z,980.41
2019-05-23T01:33:10.664Z,980.44
2019-05-23T01:34:10.581Z,980.47
2019-05-23T01:35:10.516Z,980.49
2019-05-23T01:36:10.422Z,980.48
2019-05-23T01:37:10.341Z,980.45
2019-05-23T01:38:10.268Z,980.48
2019-05-23T01:39:10.189Z,980.46
2019-05-23T01:40:10.105Z,980.48
2019-05-23T01:41:10.035Z,980.48
2019-05-23T01:42:09.955Z,980.46
2019-05-23T01:43:09.867Z,980.48
2019-05-23T01:44:09.787Z,980.48
2019-05-23T01:45:09.709Z,980.44
2019-05-23T01:46:09.630Z,980.43
2019-05-23T01:47:09.552Z,980.45
2019-05-23T01:48:09.473Z,980.46
2019-05-23T01:49:09.391Z,980.46
2019-05-23T01:50:09.314Z,980.48
2019-05-23T01:51:09.235Z,980.48
2019-05-23T01:52:09.158Z,980.52
2019-05-23T01:53:09.072Z,980.49
2019-05-23T01:54:09.001Z,980.54
2019-05-23T01:55:08.915Z,980.51
2019-05-23T01:56:08.833Z,980.54
2019-05-23T01:57:08.750Z,980.56
2019-05-23T01:58:08.672Z,980.54
2019-05-23T01:59:08.613Z,980.55
2019-05-23T02:00:10.909Z,980.55
2019-05-23T02:01:08.442Z,980.50
2019-05-23T02:02:08.359Z,980.52
2019-05-23T02:03:08.279Z,980.52
2019-05-23T02:04:08.199Z,980.52
2019-05-23T02:05:08.135Z,980.53
2019-05-23T02:06:08.038Z,980.54
2019-05-23T02:07:07.954Z,980.52
2019-05-23T02:08:07.882Z,980.51
2019-05-23T02:09:07.797Z,980.56
2019-05-23T02:10:07.715Z,980.54
2019-05-23T02:11:07.637Z,980.54
2019-05-23T02:12:07.555Z,980.58
2019-05-23T02:13:07.475Z,980.57
2019-05-23T02:14:07.393Z,980.56
2019-05-23T02:15:07.314Z,980.56
2019-05-23T02:16:07.240Z,980.57
2019-05-23T02:17:07.162Z,980.56
2019-05-23T02:18:07.078Z,980.57
2019-05-23T02:19:06.994Z,980.57
2019-05-23T02:20:06.917Z,980.60
2019-05-23T02:21:06.835Z,980.57
2019-05-23T02:22:06.752Z,980.54
2019-05-23T02:23:06.676Z,980.54
2019-05-23T02:24:06.600Z,980.52
2019-05-23T02:25:06.517Z,980.51
2019-05-23T02:26:06.435Z,980.51
2019-05-23T02:27:06.355Z,980.50
2019-05-23T02:28:06.285Z,980.52
2019-05-23T02:29:06.199Z,980.52
2019-05-23T02:30:06.129Z,980.52
2019-05-23T02:31:06.044Z,980.49
2019-05-23T02:32:05.962Z,980.50
2019-05-23T02:33:05.880Z,980.49
2019-05-23T02:34:05.798Z,980.52
2019-05-23T02:35:05.719Z,980.51
2019-05-23T02:36:05.638Z,980.52
2019-05-23T02:37:05.558Z,980.53
2019-05-23T02:38:05.477Z,980.51
2019-05-23T02:39:05.413Z,980.49
2019-05-23T02:40:05.349Z,980.50
2019-05-23T02:41:05.234Z,980.53
2019-05-23T02:42:05.159Z,980.50
2019-05-23T02:43:05.080Z,980.51
2019-05-23T02:44:05.000Z,980.51
2019-05-23T02:45:04.941Z,980.52
2019-05-23T02:46:04.838Z,980.52
2019-05-23T02:47:04.771Z,980.52
2019-05-23T02:48:04.693Z,980.51
2019-05-23T02:49:04.598Z,980.50
2019-05-23T02:50:04.516Z,980.50
2019-05-23T02:51:04.442Z,980.52
2019-05-23T02:52:04.357Z,980.49
2019-05-23T02:53:04.277Z,980.52
2019-05-23T02:54:04.223Z,980.50
2019-05-23T02:55:04.114Z,980.48
2019-05-23T02:56:04.039Z,980.47
2019-05-23T02:57:03.958Z,980.46
2019-05-23T02:58:03.881Z,980.43
2019-05-23T02:59:03.797Z,980.46
2019-05-23T03:00:03.730Z,980.40
2019-05-23T03:01:03.649Z,980.45
2019-05-23T03:02:03.555Z,980.44
2019-05-23T03:03:03.475Z,980.42
2019-05-23T03:04:03.397Z,980.41
2019-05-23T03:05:03.310Z,980.43
2019-05-23T03:06:03.235Z,980.36
2019-05-23T03:07:03.190Z,980.39
2019-05-23T03:08:03.077Z,980.39
2019-05-23T03:09:02.993Z,980.32
2019-05-23T03:10:02.914Z,980.32
2019-05-23T03:11:02.834Z,980.34
2019-05-23T03:12:02.770Z,980.33
2019-05-23T03:13:02.675Z,980.37
2019-05-23T03:14:02.593Z,980.33
2019-05-23T03:15:02.514Z,980.34
2019-05-23T03:16:02.431Z,980.32
2019-05-23T03:17:02.353Z,980.31
2019-05-23T03:18:02.271Z,980.30
2019-05-23T03:19:02.192Z,980.29
2019-05-23T03:20:02.108Z,980.31
2019-05-23T03:21:02.029Z,980.31
2019-05-23T03:22:01.949Z,980.31
2019-05-23T03:23:01.868Z,980.29
2019-05-23T03:24:01.827Z,980.31
2019-05-23T03:25:01.707Z,980.30
2019-05-23T03:26:01.627Z,980.28
2019-05-23T03:27:01.550Z,980.30
2019-05-23T03:28:01.484Z,980.29
2019-05-23T03:29:01.389Z,980.29
2019-05-23T03:30:01.307Z,980.32
2019-05-23T03:31:25.246Z,980.29
2019-05-23T03:32:01.152Z,980.35
2019-05-23T03:33:01.231Z,980.32
2019-05-23T03:34:00.986Z,980.34
2019-05-23T03:35:00.929Z,980.39
2019-05-23T03:36:00.828Z,980.39
2019-05-23T03:37:00.742Z,980.39
2019-05-23T03:38:00.661Z,980.40
2019-05-23T03:39:00.598Z,980.42
2019-05-23T03:40:00.505Z,980.41
2019-05-23T03:41:00.423Z,980.44
2019-05-23T03:42:00.343Z,980.41
2019-05-23T03:43:00.264Z,980.40
2019-05-23T03:44:00.178Z,980.41
2019-05-23T03:45:00.098Z,980.39
2019-05-23T03:46:00.030Z,980.40
2019-05-23T03:46:59.938Z,980.36
2019-05-23T03:47:59.864Z,980.40
2019-05-23T03:48:59.775Z,980.41
2019-05-23T03:49:59.693Z,980.38
2019-05-23T03:50:59.620Z,980.41
2019-05-23T03:51:59.536Z,980.38
2019-05-23T03:52:59.455Z,980.40
2019-05-23T03:53:59.379Z,980.42
2019-05-23T03:54:59.298Z,980.38
2019-05-23T03:55:59.219Z,980.39
2019-05-23T03:56:59.129Z,980.45
2019-05-23T03:57:59.050Z,980.42
2019-05-23T03:58:59.042Z,980.44
2019-05-23T03:59:58.897Z,980.46
2019-05-23T04:00:58.820Z,980.47
2019-05-23T04:01:58.732Z,980.46
2019-05-23T04:02:58.650Z,980.50
2019-05-23T04:03:58.568Z,980.44
2019-05-23T04:04:58.496Z,980.45
2019-05-23T04:05:58.411Z,980.47
2019-05-23T04:06:58.324Z,980.47
2019-05-23T04:07:58.259Z,980.44
2019-05-23T04:08:58.169Z,980.43
2019-05-23T04:09:58.085Z,980.45
2019-05-23T04:10:58.004Z,980.42
2019-05-23T04:11:57.928Z,980.42
2019-05-23T04:12:57.842Z,980.40
2019-05-23T04:13:57.799Z,980.46
2019-05-23T04:14:57.709Z,980.39
2019-05-23T04:15:57.614Z,980.39
2019-05-23T04:16:57.526Z,980.35
2019-05-23T04:17:57.441Z,980.36
2019-05-23T04:18:57.361Z,980.36
2019-05-23T04:19:57.290Z,980.32
2019-05-23T04:20:57.200Z,980.36
2019-05-23T04:21:57.126Z,980.35
2019-05-23T04:22:57.043Z,980.38
2019-05-23T04:23:56.964Z,980.38
2019-05-23T04:25:01.698Z,980.36
2019-05-23T04:25:56.807Z,980.40
2019-05-23T04:26:56.718Z,980.39
2019-05-23T04:27:56.639Z,980.38
2019-05-23T04:28:56.558Z,980.38
2019-05-23T04:29:56.482Z,980.35
2019-05-23T04:30:56.393Z,980.37
2019-05-23T04:32:07.029Z,980.36
2019-05-23T04:32:56.240Z,980.38
2019-05-23T04:33:56.173Z,980.38
2019-05-23T04:34:56.075Z,980.35
2019-05-23T04:35:56.002Z,980.36
2019-05-23T04:36:55.913Z,980.38
2019-05-23T04:37:55.836Z,980.42
2019-05-23T04:38:55.757Z,980.45
2019-05-23T04:39:55.673Z,980.43
2019-05-23T04:40:55.591Z,980.42
2019-05-23T04:41:55.515Z,980.46
2019-05-23T04:42:55.440Z,980.45
2019-05-23T04:43:55.349Z,980.46
2019-05-23T04:44:55.265Z,980.46
2019-05-23T04:45:55.196Z,980.45
2019-05-23T04:46:55.117Z,980.47
2019-05-23T04:47:55.035Z,980.47
2019-05-23T04:48:54.947Z,980.48
2019-05-23T04:49:54.868Z,980.47
2019-05-23T04:50:54.787Z,980.48
2019-05-23T04:51:54.710Z,980.50
2019-05-23T04:52:54.639Z,980.51
2019-05-23T04:53:54.547Z,980.52
2019-05-23T04:54:54.479Z,980.54
2019-05-23T04:55:54.384Z,980.53
2019-05-23T04:56:54.310Z,980.54
2019-05-23T04:57:54.229Z,980.55
2019-05-23T04:58:54.144Z,980.58
2019-05-23T04:59:54.062Z,980.54
2019-05-23T05:00:53.980Z,980.56
2019-05-23T05:01:53.901Z,980.57
2019-05-23T05:02:53.820Z,980.55
2019-05-23T05:03:53.761Z,980.56
2019-05-23T05:04:53.664Z,980.59
2019-05-23T05:05:53.582Z,980.59
2019-05-23T05:06:53.510Z,980.60
2019-05-23T05:07:53.429Z,980.60
2019-05-23T05:08:53.340Z,980.65
2019-05-23T05:09:53.264Z,980.67
2019-05-23T05:10:53.178Z,980.66
2019-05-23T05:11:53.096Z,980.68
2019-05-23T05:12:53.019Z,980.69
2019-05-23T05:13:52.936Z,980.68
2019-05-23T05:14:52.862Z,980.66
2019-05-23T05:15:52.779Z,980.72
2019-05-23T05:16:52.703Z,980.70
2019-05-23T05:17:52.632Z,980.72
2019-05-23T05:18:55.159Z,980.73
2019-05-23T05:19:52.463Z,980.70
2019-05-23T05:20:52.378Z,980.68
2019-05-23T05:21:52.300Z,980.71
2019-05-23T05:22:52.215Z,980.71
2019-05-23T05:23:52.142Z,980.74
2019-05-23T05:24:52.057Z,980.72
2019-05-23T05:25:51.991Z,980.73
2019-05-23T05:26:51.899Z,980.74
2019-05-23T05:27:51.831Z,980.72
2019-05-23T05:28:51.762Z,980.73
2019-05-23T05:29:51.660Z,980.73
2019-05-23T05:30:51.585Z,980.75
2019-05-23T05:31:51.509Z,980.73
2019-05-23T05:32:51.418Z,980.77
2019-05-23T05:33:51.334Z,980.76
2019-05-23T05:34:51.260Z,980.74
2019-05-23T05:35:51.182Z,980.74
2019-05-23T05:36:51.119Z,980.73
2019-05-23T05:37:51.016Z,980.80
2019-05-23T05:38:50.962Z,980.80
2019-05-23T05:39:50.868Z,980.81
2019-05-23T05:40:50.783Z,980.81
2019-05-23T05:41:50.699Z,980.79
2019-05-23T05:42:50.623Z,980.81
2019-05-23T05:43:50.541Z,980.83
2019-05-23T05:44:50.492Z,980.83
2019-05-23T05:45:50.388Z,980.86
2019-05-23T05:46:50.438Z,980.89
2019-05-23T05:47:50.220Z,980.91
2019-05-23T05:48:50.309Z,980.90
2019-05-23T05:49:50.074Z,980.91
2019-05-23T05:50:50.118Z,980.90
2019-05-23T05:51:49.904Z,980.91
2019-05-23T05:52:49.926Z,980.92
2019-05-23T05:53:49.741Z,980.93
2019-05-23T05:54:49.841Z,980.94
2019-05-23T05:55:49.586Z,980.96
2019-05-23T05:56:49.654Z,980.97
2019-05-23T05:57:49.435Z,981.02
2019-05-23T05:58:49.469Z,981.00
2019-05-23T05:59:49.271Z,980.99
2019-05-23T06:00:49.186Z,981.04
2019-05-23T06:01:49.271Z,981.04
2019-05-23T06:03:03.605Z,981.04
2019-05-23T06:03:49.076Z,981.05
2019-05-23T06:04:48.869Z,981.06
2019-05-23T06:05:48.887Z,981.04
2019-05-23T06:06:50.228Z,981.06
2019-05-23T06:07:48.699Z,981.07
2019-05-23T06:08:48.569Z,981.06
2019-05-23T06:09:48.604Z,981.04
2019-05-23T06:10:48.402Z,981.05
2019-05-23T06:11:48.413Z,981.06
2019-05-23T06:12:48.231Z,981.08
2019-05-23T06:13:48.224Z,981.03
2019-05-23T06:14:48.087Z,981.04
2019-05-23T06:15:48.134Z,981.06
2019-05-23T06:16:47.915Z,981.05
2019-05-23T06:17:47.966Z,981.06
2019-05-23T06:18:47.759Z,981.05
2019-05-23T06:19:47.864Z,981.05
2019-05-23T06:20:47.599Z,981.04
2019-05-23T06:21:47.667Z,981.03
2019-05-23T06:22:47.444Z,981.06
2019-05-23T06:23:47.482Z,981.01
2019-05-23T06:24:52.389Z,981.00
2019-05-23T06:25:47.385Z,980.99
2019-05-23T06:26:47.125Z,981.01
2019-05-23T06:27:47.196Z,981.01
2019-05-23T06:28:46.966Z,981.02
2019-05-23T06:29:46.888Z,981.00
2019-05-23T06:30:46.918Z,980.97
2019-05-23T06:31:46.735Z,980.96
2019-05-23T06:32:46.822Z,980.98
2019-05-23T06:33:46.564Z,980.93
2019-05-23T06:34:46.629Z,980.97
2019-05-23T06:35:46.421Z,980.96
2019-05-23T06:36:46.438Z,980.98
2019-05-23T06:37:46.255Z,980.99
2019-05-23T06:38:46.346Z,981.00
2019-05-23T06:39:46.108Z,980.95
2019-05-23T06:40:46.165Z,980.95
2019-05-23T06:41:45.970Z,980.94
2019-05-23T06:42:49.750Z,980.94
2019-05-23T06:43:45.788Z,980.93
2019-05-23T06:44:45.778Z,980.93
2019-05-23T06:45:45.622Z,980.89
2019-05-23T06:46:45.706Z,980.93
2019-05-23T06:47:45.469Z,980.91
2019-05-23T06:48:46.121Z,980.92
2019-05-23T06:49:45.307Z,980.91
2019-05-23T06:50:45.320Z,980.94
2019-05-23T06:51:45.144Z,980.91
2019-05-23T06:52:45.115Z,980.93
2019-05-23T06:53:44.994Z,980.91
2019-05-23T06:54:45.023Z,980.94
2019-05-23T06:55:44.982Z,980.93
2019-05-23T06:56:44.832Z,980.91
2019-05-23T06:57:44.685Z,980.96
2019-05-23T06:58:44.601Z,980.94
2019-05-23T06:59:44.550Z,980.93
2019-05-23T07:00:44.496Z,980.89
2019-05-23T07:01:44.566Z,980.94
2019-05-23T07:02:44.294Z,980.95
2019-05-23T07:03:44.375Z,980.99
2019-05-23T07:04:44.135Z,980.96
2019-05-23T07:05:44.053Z,980.96
2019-05-23T07:06:43.971Z,980.96
2019-05-23T07:07:44.092Z,980.97
2019-05-23T07:08:43.814Z,981.00
2019-05-23T07:09:43.904Z,981.02
2019-05-23T07:10:44.673Z,981.02
2019-05-23T07:11:43.724Z,980.99
2019-05-23T07:12:43.502Z,981.02
2019-05-23T07:13:43.621Z,981.04
2019-05-23T07:14:43.351Z,981.03
2019-05-23T07:15:43.439Z,981.02
2019-05-23T07:16:43.196Z,981.03
2019-05-23T07:17:43.239Z,981.04
2019-05-23T07:18:43.036Z,980.97
2019-05-23T07:19:43.153Z,980.97
2019-05-23T07:20:42.899Z,980.97
2019-05-23T07:21:42.955Z,980.99
2019-05-23T07:22:42.738Z,980.99
2019-05-23T07:23:42.768Z,980.99
2019-05-23T07:24:56.876Z,980.99
2019-05-23T07:25:42.495Z,980.96
2019-05-23T07:26:42.590Z,981.03
2019-05-23T07:27:42.351Z,981.00
2019-05-23T07:28:42.397Z,981.04
2019-05-23T07:29:42.180Z,981.06
2019-05-23T07:30:42.306Z,981.04
2019-05-23T07:31:42.034Z,981.05
2019-05-23T07:32:42.116Z,981.02
2019-05-23T07:33:59.895Z,981.00
2019-05-23T07:34:41.798Z,981.03
2019-05-23T07:35:41.929Z,981.02
2019-05-23T07:36:41.768Z,980.98
2019-05-23T07:37:41.741Z,980.99
2019-05-23T07:38:41.486Z,980.99
2019-05-23T07:39:41.553Z,980.98
2019-05-23T07:40:41.363Z,980.97
2019-05-23T07:41:41.460Z,980.95
2019-05-23T07:42:41.181Z,980.97
2019-05-23T07:43:41.271Z,980.92
2019-05-23T07:44:48.264Z,980.94
2019-05-23T07:45:41.079Z,980.97
2019-05-23T07:46:40.882Z,980.96
2019-05-23T07:47:40.992Z,980.96
2019-05-23T07:48:40.720Z,980.96
2019-05-23T07:49:40.799Z,980.93
2019-05-23T07:50:40.644Z,980.95
2019-05-23T07:51:40.616Z,980.94
2019-05-23T07:52:40.414Z,980.97
2019-05-23T07:53:43.741Z,980.95
2019-05-23T07:54:40.269Z,980.95
2019-05-23T07:55:40.379Z,980.95
2019-05-23T07:56:40.113Z,980.98
2019-05-23T07:57:40.245Z,981.00
2019-05-23T07:58:39.958Z,980.99
2019-05-23T07:59:40.054Z,980.99
2019-05-23T08:00:39.834Z,981.02
2019-05-23T08:01:39.869Z,980.99
2019-05-23T08:02:39.660Z,980.99
2019-05-23T08:03:39.774Z,981.00
2019-05-23T08:04:39.504Z,980.98
2019-05-23T08:05:39.582Z,980.99
2019-05-23T08:06:39.352Z,981.00
2019-05-23T08:07:39.503Z,980.98
2019-05-23T08:08:39.203Z,980.99
2019-05-23T08:09:39.300Z,980.99
2019-05-23T08:10:39.050Z,980.99
2019-05-23T08:11:39.110Z,981.00
2019-05-23T08:12:38.892Z,981.01
2019-05-23T08:13:39.021Z,980.97
2019-05-23T08:14:38.749Z,980.99
2019-05-23T08:15:38.832Z,981.01
2019-05-23T08:16:38.603Z,980.95
2019-05-23T08:17:39.663Z,980.99
2019-05-23T08:18:38.449Z,980.95
2019-05-23T08:19:49.611Z,980.92
2019-05-23T08:20:38.304Z,980.95
2019-05-23T08:21:45.224Z,980.94
2019-05-23T08:22:38.142Z,980.97
2019-05-23T08:23:38.167Z,980.95
2019-05-23T08:24:37.991Z,980.94
2019-05-23T08:25:38.074Z,980.94
2019-05-23T08:26:37.869Z,980.93
2019-05-23T08:27:37.908Z,980.95
2019-05-23T08:28:53.381Z,980.92
2019-05-23T08:29:37.618Z,980.93
2019-05-23T08:30:37.543Z,980.91
2019-05-23T08:31:37.607Z,980.92
2019-05-23T08:32:37.393Z,980.90
2019-05-23T08:33:37.519Z,980.88
2019-05-23T08:34:42.212Z,980.88
2019-05-23T08:35:37.224Z,980.89
2019-05-23T08:36:37.126Z,980.89
2019-05-23T08:37:37.243Z,980.86
2019-05-23T08:38:36.942Z,980.90
2019-05-23T08:39:36.948Z,980.87
2019-05-23T08:40:36.797Z,980.88
2019-05-23T08:41:36.724Z,980.85
2019-05-23T08:42:36.659Z,980.84
2019-05-23T08:43:36.768Z,980.85
2019-05-23T08:44:36.496Z,980.84
2019-05-23T08:45:36.612Z,980.86
2019-05-23T08:46:36.344Z,980.86
2019-05-23T08:47:36.496Z,980.83
2019-05-23T08:48:36.197Z,980.86
2019-05-23T08:49:36.300Z,980.82
2019-05-23T08:50:36.060Z,980.85
2019-05-23T08:51:36.217Z,980.85
2019-05-23T08:52:35.905Z,980.85
2019-05-23T08:53:35.828Z,980.84
2019-05-23T08:54:35.926Z,980.83
2019-05-23T08:55:35.691Z,980.78
2019-05-23T08:56:35.837Z,980.82
2019-05-23T08:57:35.552Z,980.85
2019-05-23T08:58:35.643Z,980.82
2019-05-23T08:59:35.395Z,980.85
2019-05-23T09:00:35.478Z,980.82
2019-05-23T09:01:35.247Z,980.82
2019-05-23T09:02:35.368Z,980.80
2019-05-23T09:03:35.087Z,980.80
2019-05-23T09:04:35.176Z,980.82
2019-05-23T09:05:34.945Z,980.81
2019-05-23T09:06:35.080Z,980.81
2019-05-23T09:07:34.795Z,980.81
2019-05-23T09:08:34.887Z,980.82
2019-05-23T09:09:34.650Z,980.85
2019-05-23T09:10:34.609Z,980.83
2019-05-23T09:11:34.539Z,980.83
2019-05-23T09:12:34.622Z,980.84
2019-05-23T09:13:34.370Z,980.80
2019-05-23T09:14:34.421Z,980.82
2019-05-23T09:15:34.212Z,980.80
2019-05-23T09:16:34.333Z,980.79
2019-05-23T09:17:51.564Z,980.75
2019-05-23T09:18:34.034Z,980.76
2019-05-23T09:19:33.909Z,980.77
2019-05-23T09:20:33.956Z,980.73
2019-05-23T09:21:33.779Z,980.76
2019-05-23T09:22:33.759Z,980.75
2019-05-23T09:23:33.623Z,980.76
2019-05-23T09:24:33.674Z,980.74
2019-05-23T09:25:33.472Z,980.73
2019-05-23T09:26:33.480Z,980.72
2019-05-23T09:27:34.665Z,980.66
2019-05-23T09:28:33.288Z,980.70
2019-05-23T09:29:33.181Z,980.71
2019-05-23T09:30:33.209Z,980.67
2019-05-23T09:31:33.033Z,980.71
2019-05-23T09:32:33.014Z,980.68
2019-05-23T09:33:32.897Z,980.73
2019-05-23T09:34:32.913Z,980.69
2019-05-23T09:35:32.750Z,980.72
2019-05-23T09:36:32.735Z,980.71
2019-05-23T09:37:32.605Z,980.69
2019-05-23T09:38:32.634Z,980.69
2019-05-23T09:39:32.458Z,980.68
2019-05-23T09:40:32.455Z,980.67
2019-05-23T09:41:32.314Z,980.69
2019-05-23T09:42:32.376Z,980.67
2019-05-23T09:43:32.168Z,980.65
2019-05-23T09:44:32.181Z,980.63
2019-05-23T09:45:32.098Z,980.68
2019-05-23T09:46:32.085Z,980.68
2019-05-23T09:47:31.880Z,980.65
2019-05-23T09:48:31.914Z,980.68
2019-05-23T09:49:31.734Z,980.67
2019-05-23T09:50:31.675Z,980.66
2019-05-23T09:51:31.710Z,980.64
2019-05-23T09:52:31.512Z,980.65
2019-05-23T09:53:31.555Z,980.65
2019-05-23T09:54:31.369Z,980.63
2019-05-23T09:55:31.432Z,980.60
2019-05-23T09:56:31.229Z,980.59
2019-05-23T09:57:31.239Z,980.56
2019-05-23T09:58:31.080Z,980.58
2019-05-23T09:59:31.043Z,980.54
2019-05-23T10:00:30.937Z,980.59
2019-05-23T10:01:30.965Z,980.60
2019-05-23T10:02:30.801Z,980.58
2019-05-23T10:03:30.745Z,980.60
2019-05-23T10:04:30.652Z,980.60
2019-05-23T10:05:42.720Z,980.58
2019-05-23T10:06:30.507Z,980.54
2019-05-23T10:07:30.490Z,980.56
2019-05-23T10:08:30.362Z,980.53
2019-05-23T10:09:30.417Z,980.51
2019-05-23T10:10:30.217Z,980.49
2019-05-23T10:11:30.212Z,980.55
2019-05-23T10:12:30.076Z,980.51
2019-05-23T10:13:39.181Z,980.50
2019-05-23T10:14:29.930Z,980.48
2019-05-23T10:15:29.928Z,980.51
2019-05-23T10:16:29.791Z,980.47
2019-05-23T10:17:29.844Z,980.46
2019-05-23T10:18:29.644Z,980.43
2019-05-23T10:19:29.653Z,980.46
2019-05-23T10:20:29.498Z,980.44
2019-05-23T10:21:29.559Z,980.41
2019-05-23T10:22:29.360Z,980.42
2019-05-23T10:23:29.373Z,980.41
2019-05-23T10:24:29.221Z,980.42
2019-05-23T10:25:29.287Z,980.42
2019-05-23T10:26:29.087Z,980.43
2019-05-23T10:27:29.096Z,980.44
2019-05-23T10:28:28.940Z,980.45
2019-05-23T10:29:29.007Z,980.44
2019-05-23T10:30:28.787Z,980.40
2019-05-23T10:31:28.813Z,980.40
2019-05-23T10:32:28.646Z,980.41
2019-05-23T10:33:28.595Z,980.42
2019-05-23T10:34:28.506Z,980.40
2019-05-23T10:35:28.533Z,980.34
2019-05-23T10:36:28.365Z,980.37
2019-05-23T10:37:28.348Z,980.34
2019-05-23T10:38:29.493Z,980.37
2019-05-23T10:39:28.260Z,980.37
2019-05-23T10:40:28.072Z,980.34
2019-05-23T10:41:28.063Z,980.33
2019-05-23T10:42:27.939Z,980.31
2019-05-23T10:43:28.017Z,980.27
2019-05-23T10:44:27.804Z,980.31
2019-05-23T10:45:27.807Z,980.22
2019-05-23T10:46:27.643Z,980.26
2019-05-23T10:47:27.664Z,980.26
2019-05-23T10:48:27.501Z,980.23
2019-05-23T10:49:27.475Z,980.23
2019-05-23T10:50:43.338Z,980.25
2019-05-23T10:51:27.290Z,980.21
2019-05-23T10:52:27.320Z,980.23
2019-05-23T10:53:27.159Z,980.22
2019-05-23T10:54:27.133Z,980.17
2019-05-23T10:55:27.004Z,980.13
2019-05-23T10:56:27.041Z,980.16
2019-05-23T10:57:26.872Z,980.14
2019-05-23T10:58:26.855Z,980.15
2019-05-23T10:59:26.723Z,980.11
2019-05-23T11:00:26.762Z,980.09
2019-05-23T11:01:26.577Z,980.10
2019-05-23T11:02:27.254Z,980.05
2019-05-23T11:03:26.441Z,980.09
2019-05-23T11:04:26.480Z,980.07
2019-05-23T11:05:26.290Z,980.05
2019-05-23T11:06:26.292Z,980.03
2019-05-23T11:07:26.156Z,980.06
2019-05-23T11:08:29.296Z,979.98
2019-05-23T11:09:37.162Z,979.95
2019-05-23T11:10:25.942Z,979.94
2019-05-23T11:11:26.092Z,979.92
2019-05-23T11:12:25.800Z,979.94
2019-05-23T11:13:25.829Z,979.96
2019-05-23T11:14:25.673Z,979.96
2019-05-23T11:15:25.738Z,979.96
2019-05-23T11:16:25.516Z,979.94
2019-05-23T11:17:25.544Z,979.95
2019-05-23T11:18:25.376Z,979.99
2019-05-23T11:19:25.459Z,979.95
2019-05-23T11:20:25.241Z,979.95
2019-05-23T11:21:25.302Z,979.94
2019-05-23T11:22:25.096Z,979.99
2019-05-23T11:23:25.181Z,979.96
2019-05-23T11:24:24.955Z,979.97
2019-05-23T11:25:24.993Z,979.96
2019-05-23T11:26:24.816Z,979.95
2019-05-23T11:27:24.901Z,979.94
2019-05-23T11:28:24.676Z,979.91
2019-05-23T11:29:27.163Z,979.89
2019-05-23T11:30:24.535Z,979.88
2019-05-23T11:31:24.620Z,979.87
2019-05-23T11:32:24.392Z,979.89
2019-05-23T11:33:24.432Z,979.89
2019-05-23T11:34:24.256Z,979.87
2019-05-23T11:35:24.241Z,979.91
2019-05-23T11:36:34.617Z,979.89
2019-05-23T11:37:24.047Z,979.91
2019-05-23T11:38:24.055Z,979.86
2019-05-23T11:39:23.936Z,979.87
2019-05-23T11:40:23.965Z,979.86
2019-05-23T11:41:23.762Z,979.87
2019-05-23T11:42:23.774Z,979.85
2019-05-23T11:43:23.619Z,979.82
2019-05-23T11:44:23.689Z,979.83
2019-05-23T11:45:23.475Z,979.81
2019-05-23T11:46:23.493Z,979.79
2019-05-23T11:47:23.352Z,979.79
2019-05-23T11:48:23.406Z,979.78
2019-05-23T11:49:23.203Z,979.78
2019-05-23T11:50:23.217Z,979.73
2019-05-23T11:51:25.433Z,979.78
2019-05-23T11:52:23.082Z,979.74
2019-05-23T11:53:22.910Z,979.72
2019-05-23T11:54:22.942Z,979.74
2019-05-23T11:55:22.776Z,979.75
2019-05-23T11:56:22.851Z,979.73
2019-05-23T11:57:22.630Z,979.73
2019-05-23T11:58:22.653Z,979.74
2019-05-23T11:59:22.496Z,979.71
2019-05-23T12:00:22.573Z,979.72
2019-05-23T12:01:22.355Z,979.72
2019-05-23T12:02:22.386Z,979.71
2019-05-23T12:03:22.212Z,979.66
2019-05-23T12:04:22.290Z,979.66
2019-05-23T12:05:22.066Z,979.65
2019-05-23T12:06:25.782Z,979.66
2019-05-23T12:07:21.935Z,979.69
2019-05-23T12:08:22.004Z,979.64
2019-05-23T12:09:21.785Z,979.62
2019-05-23T12:10:21.836Z,979.62
2019-05-23T12:11:21.655Z,979.60
2019-05-23T12:12:21.732Z,979.61
2019-05-23T12:13:21.512Z,979.61
2019-05-23T12:14:21.540Z,979.57
2019-05-23T12:15:21.369Z,979.57
2019-05-23T12:16:21.448Z,979.59
2019-05-23T12:17:21.236Z,979.54
2019-05-23T12:18:21.261Z,979.55
2019-05-23T12:19:21.264Z,979.51
2019-05-23T12:20:21.169Z,979.55
2019-05-23T12:21:20.945Z,979.54
2019-05-23T12:22:20.978Z,979.54
2019-05-23T12:23:20.805Z,979.55
2019-05-23T12:24:20.838Z,979.53
2019-05-23T12:25:23.018Z,979.51
2019-05-23T12:26:20.698Z,979.52
2019-05-23T12:27:20.524Z,979.51